sensor_id;sensor_type;location;lat;lon;timestamp;temperature;humidity
25532;DHT22;13429;48.816;9.118;2023-12-14T00:01:11;5.60;94.40
25532;DHT22;13429;48.816;9.118;2023-12-14T00:03:41;5.70;94.40
25532;DHT22;13429;48.816;9.118;2023-12-14T00:06:11;5.70;94.40
25532;DHT22;13429;48.816;9.118;2023-12-14T00:08:37;5.70;94.40
25532;DHT22;13429;48.816;9.118;2023-12-14T00:11:06;5.70;94.40
25532;DHT22;13429;48.816;9.118;2023-12-14T00:13:32;5.70;94.30
25532;DHT22;13429;48.816;9.118;2023-12-14T00:15:58;5.80;94.40
25532;DHT22;13429;48.816;9.118;2023-12-14T00:18:24;5.70;94.40
25532;DHT22;13429;48.816;9.118;2023-12-14T00:20:49;5.70;94.40
25532;DHT22;13429;48.816;9.118;2023-12-14T00:23:15;5.70;94.40
25532;DHT22;13429;48.816;9.118;2023-12-14T00:25:41;5.70;94.40
25532;DHT22;13429;48.816;9.118;2023-12-14T00:28:06;5.80;94.50
25532;DHT22;13429;48.816;9.118;2023-12-14T00:30:32;5.70;94.40
25532;DHT22;13429;48.816;9.118;2023-12-14T00:32:57;5.70;94.50
25532;DHT22;13429;48.816;9.118;2023-12-14T00:35:23;5.70;94.60
25532;DHT22;13429;48.816;9.118;2023-12-14T00:37:49;5.70;94.50
25532;DHT22;13429;48.816;9.118;2023-12-14T00:40:14;5.80;94.50
25532;DHT22;13429;48.816;9.118;2023-12-14T00:42:40;5.80;94.50
25532;DHT22;13429;48.816;9.118;2023-12-14T00:45:06;5.70;94.50
25532;DHT22;13429;48.816;9.118;2023-12-14T00:47:31;5.70;94.50
25532;DHT22;13429;48.816;9.118;2023-12-14T00:49:57;5.80;94.50
25532;DHT22;13429;48.816;9.118;2023-12-14T00:52:23;5.80;94.50
25532;DHT22;13429;48.816;9.118;2023-12-14T00:54:48;5.80;94.50
25532;DHT22;13429;48.816;9.118;2023-12-14T00:57:14;5.80;94.40
25532;DHT22;13429;48.816;9.118;2023-12-14T00:59:39;5.80;94.50
25532;DHT22;13429;48.816;9.118;2023-12-14T01:02:06;5.80;94.40
25532;DHT22;13429;48.816;9.118;2023-12-14T01:04:32;5.80;94.40
25532;DHT22;13429;48.816;9.118;2023-12-14T01:06:57;5.80;94.40
25532;DHT22;13429;48.816;9.118;2023-12-14T01:09:23;5.80;94.50
25532;DHT22;13429;48.816;9.118;2023-12-14T01:11:48;5.80;94.40
25532;DHT22;13429;48.816;9.118;2023-12-14T01:14:14;5.80;94.50
25532;DHT22;13429;48.816;9.118;2023-12-14T01:16:40;5.80;94.50
25532;DHT22;13429;48.816;9.118;2023-12-14T01:19:05;5.80;94.60
25532;DHT22;13429;48.816;9.118;2023-12-14T01:21:32;5.70;94.70
25532;DHT22;13429;48.816;9.118;2023-12-14T01:23:57;5.80;94.70
25532;DHT22;13429;48.816;9.118;2023-12-14T01:26:23;5.80;94.60
25532;DHT22;13429;48.816;9.118;2023-12-14T01:28:49;5.70;94.70
25532;DHT22;13429;48.816;9.118;2023-12-14T01:31:15;5.80;94.70
25532;DHT22;13429;48.816;9.118;2023-12-14T01:33:40;5.70;94.70
25532;DHT22;13429;48.816;9.118;2023-12-14T01:36:06;5.70;94.70
25532;DHT22;13429;48.816;9.118;2023-12-14T01:38:32;5.70;94.70
25532;DHT22;13429;48.816;9.118;2023-12-14T01:40:57;5.70;94.80
25532;DHT22;13429;48.816;9.118;2023-12-14T01:43:24;5.70;94.70
25532;DHT22;13429;48.816;9.118;2023-12-14T01:45:50;5.70;94.70
25532;DHT22;13429;48.816;9.118;2023-12-14T01:48:16;5.70;94.70
25532;DHT22;13429;48.816;9.118;2023-12-14T01:50:41;5.70;94.70
25532;DHT22;13429;48.816;9.118;2023-12-14T01:53:07;5.70;94.80
25532;DHT22;13429;48.816;9.118;2023-12-14T01:55:32;5.70;94.80
25532;DHT22;13429;48.816;9.118;2023-12-14T01:57:59;5.60;94.70
25532;DHT22;13429;48.816;9.118;2023-12-14T02:00:40;5.60;94.80
25532;DHT22;13429;48.816;9.118;2023-12-14T02:03:07;5.60;94.70
25532;DHT22;13429;48.816;9.118;2023-12-14T02:05:32;5.60;94.70
25532;DHT22;13429;48.816;9.118;2023-12-14T02:07:58;5.60;94.70
25532;DHT22;13429;48.816;9.118;2023-12-14T02:10:24;5.60;94.70
25532;DHT22;13429;48.816;9.118;2023-12-14T02:12:49;5.60;94.70
25532;DHT22;13429;48.816;9.118;2023-12-14T02:15:15;5.60;94.70
25532;DHT22;13429;48.816;9.118;2023-12-14T02:17:41;5.60;94.70
25532;DHT22;13429;48.816;9.118;2023-12-14T02:20:06;5.60;94.70
25532;DHT22;13429;48.816;9.118;2023-12-14T02:22:47;5.60;94.60
25532;DHT22;13429;48.816;9.118;2023-12-14T02:25:14;5.60;94.60
25532;DHT22;13429;48.816;9.118;2023-12-14T02:27:40;5.70;94.50
25532;DHT22;13429;48.816;9.118;2023-12-14T02:30:06;5.70;94.50
25532;DHT22;13429;48.816;9.118;2023-12-14T02:32:31;5.70;94.50
25532;DHT22;13429;48.816;9.118;2023-12-14T02:34:57;5.70;94.50
25532;DHT22;13429;48.816;9.118;2023-12-14T02:37:23;5.60;94.50
25532;DHT22;13429;48.816;9.118;2023-12-14T02:39:49;5.60;94.40
25532;DHT22;13429;48.816;9.118;2023-12-14T02:42:14;5.60;94.40
25532;DHT22;13429;48.816;9.118;2023-12-14T02:44:40;5.70;94.40
25532;DHT22;13429;48.816;9.118;2023-12-14T02:47:06;5.70;94.40
25532;DHT22;13429;48.816;9.118;2023-12-14T02:49:31;5.80;94.30
25532;DHT22;13429;48.816;9.118;2023-12-14T02:51:57;5.80;94.30
25532;DHT22;13429;48.816;9.118;2023-12-14T02:54:23;5.80;94.30
25532;DHT22;13429;48.816;9.118;2023-12-14T02:56:49;5.80;94.30
25532;DHT22;13429;48.816;9.118;2023-12-14T02:59:14;5.70;94.40
25532;DHT22;13429;48.816;9.118;2023-12-14T03:01:40;5.70;94.40
25532;DHT22;13429;48.816;9.118;2023-12-14T03:04:06;5.70;94.50
25532;DHT22;13429;48.816;9.118;2023-12-14T03:06:32;5.70;94.60
25532;DHT22;13429;48.816;9.118;2023-12-14T03:08:58;5.60;94.60
25532;DHT22;13429;48.816;9.118;2023-12-14T03:11:24;5.60;94.60
25532;DHT22;13429;48.816;9.118;2023-12-14T03:13:50;5.60;94.60
25532;DHT22;13429;48.816;9.118;2023-12-14T03:16:15;5.80;94.60
25532;DHT22;13429;48.816;9.118;2023-12-14T03:18:42;5.80;94.50
25532;DHT22;13429;48.816;9.118;2023-12-14T03:21:09;5.80;94.40
25532;DHT22;13429;48.816;9.118;2023-12-14T03:23:35;5.80;94.40
25532;DHT22;13429;48.816;9.118;2023-12-14T03:26:01;5.90;94.40
25532;DHT22;13429;48.816;9.118;2023-12-14T03:28:27;5.80;94.30
25532;DHT22;13429;48.816;9.118;2023-12-14T03:30:53;5.80;94.30
25532;DHT22;13429;48.816;9.118;2023-12-14T03:33:18;5.80;94.30
25532;DHT22;13429;48.816;9.118;2023-12-14T03:35:44;5.80;94.40
25532;DHT22;13429;48.816;9.118;2023-12-14T03:38:13;5.80;94.40
25532;DHT22;13429;48.816;9.118;2023-12-14T03:40:39;5.80;94.40
25532;DHT22;13429;48.816;9.118;2023-12-14T03:43:05;5.80;94.30
25532;DHT22;13429;48.816;9.118;2023-12-14T03:45:30;5.80;94.30
25532;DHT22;13429;48.816;9.118;2023-12-14T03:47:56;5.80;94.40
25532;DHT22;13429;48.816;9.118;2023-12-14T03:50:22;5.70;94.40
25532;DHT22;13429;48.816;9.118;2023-12-14T03:52:48;5.70;94.40
25532;DHT22;13429;48.816;9.118;2023-12-14T03:55:14;5.70;94.40
25532;DHT22;13429;48.816;9.118;2023-12-14T03:57:41;5.80;94.40
25532;DHT22;13429;48.816;9.118;2023-12-14T04:00:11;5.80;94.40
25532;DHT22;13429;48.816;9.118;2023-12-14T04:02:38;5.80;94.50
25532;DHT22;13429;48.816;9.118;2023-12-14T04:05:04;5.80;94.40
25532;DHT22;13429;48.816;9.118;2023-12-14T04:07:30;5.80;94.40
25532;DHT22;13429;48.816;9.118;2023-12-14T04:09:56;5.80;94.40
25532;DHT22;13429;48.816;9.118;2023-12-14T04:12:21;5.70;94.50
25532;DHT22;13429;48.816;9.118;2023-12-14T04:14:47;5.70;94.60
25532;DHT22;13429;48.816;9.118;2023-12-14T04:17:12;5.70;94.60
25532;DHT22;13429;48.816;9.118;2023-12-14T04:19:39;5.70;94.60
25532;DHT22;13429;48.816;9.118;2023-12-14T04:22:05;5.70;94.60
25532;DHT22;13429;48.816;9.118;2023-12-14T04:24:31;5.70;94.60
25532;DHT22;13429;48.816;9.118;2023-12-14T04:26:57;5.70;94.70
25532;DHT22;13429;48.816;9.118;2023-12-14T04:29:22;5.70;94.70
25532;DHT22;13429;48.816;9.118;2023-12-14T04:31:48;5.70;94.80
25532;DHT22;13429;48.816;9.118;2023-12-14T04:34:14;5.60;94.80
25532;DHT22;13429;48.816;9.118;2023-12-14T04:36:45;5.70;94.80
25532;DHT22;13429;48.816;9.118;2023-12-14T04:39:11;5.60;94.90
25532;DHT22;13429;48.816;9.118;2023-12-14T04:41:37;5.60;94.80
25532;DHT22;13429;48.816;9.118;2023-12-14T04:44:03;5.60;94.90
25532;DHT22;13429;48.816;9.118;2023-12-14T04:46:29;5.60;94.90
25532;DHT22;13429;48.816;9.118;2023-12-14T04:48:55;5.60;94.90
25532;DHT22;13429;48.816;9.118;2023-12-14T04:51:21;5.60;94.90
25532;DHT22;13429;48.816;9.118;2023-12-14T04:53:46;5.60;94.80
25532;DHT22;13429;48.816;9.118;2023-12-14T04:56:12;5.70;94.80
25532;DHT22;13429;48.816;9.118;2023-12-14T04:58:41;5.80;94.80
25532;DHT22;13429;48.816;9.118;2023-12-14T05:01:07;5.80;94.80
25532;DHT22;13429;48.816;9.118;2023-12-14T05:03:34;5.80;94.80
25532;DHT22;13429;48.816;9.118;2023-12-14T05:06:01;5.80;94.70
25532;DHT22;13429;48.816;9.118;2023-12-14T05:08:26;5.80;94.70
25532;DHT22;13429;48.816;9.118;2023-12-14T05:10:52;5.80;94.70
25532;DHT22;13429;48.816;9.118;2023-12-14T05:13:18;5.80;94.70
25532;DHT22;13429;48.816;9.118;2023-12-14T05:15:43;5.80;94.70
25532;DHT22;13429;48.816;9.118;2023-12-14T05:18:09;5.80;94.80
25532;DHT22;13429;48.816;9.118;2023-12-14T05:20:35;5.90;94.70
25532;DHT22;13429;48.816;9.118;2023-12-14T05:23:01;5.80;94.70
25532;DHT22;13429;48.816;9.118;2023-12-14T05:25:27;5.90;94.70
25532;DHT22;13429;48.816;9.118;2023-12-14T05:27:53;5.90;94.70
25532;DHT22;13429;48.816;9.118;2023-12-14T05:30:19;5.90;94.60
25532;DHT22;13429;48.816;9.118;2023-12-14T05:32:44;5.90;94.60
25532;DHT22;13429;48.816;9.118;2023-12-14T05:35:10;5.90;94.60
25532;DHT22;13429;48.816;9.118;2023-12-14T05:37:36;5.90;94.60
25532;DHT22;13429;48.816;9.118;2023-12-14T05:40:03;5.90;94.60
25532;DHT22;13429;48.816;9.118;2023-12-14T05:42:29;5.90;94.60
25532;DHT22;13429;48.816;9.118;2023-12-14T05:44:55;5.90;94.60
25532;DHT22;13429;48.816;9.118;2023-12-14T05:47:21;5.90;94.70
25532;DHT22;13429;48.816;9.118;2023-12-14T05:49:46;5.90;94.70
25532;DHT22;13429;48.816;9.118;2023-12-14T05:52:12;5.90;94.70
25532;DHT22;13429;48.816;9.118;2023-12-14T05:54:38;5.90;94.70
25532;DHT22;13429;48.816;9.118;2023-12-14T05:57:05;5.90;94.80
25532;DHT22;13429;48.816;9.118;2023-12-14T05:59:31;5.80;94.80
25532;DHT22;13429;48.816;9.118;2023-12-14T06:02:00;5.80;94.90
25532;DHT22;13429;48.816;9.118;2023-12-14T06:04:27;5.80;94.90
25532;DHT22;13429;48.816;9.118;2023-12-14T06:06:53;5.80;95.00
25532;DHT22;13429;48.816;9.118;2023-12-14T06:09:19;5.80;95.10
25532;DHT22;13429;48.816;9.118;2023-12-14T06:11:51;5.80;95.10
25532;DHT22;13429;48.816;9.118;2023-12-14T06:14:17;5.80;95.20
25532;DHT22;13429;48.816;9.118;2023-12-14T06:16:42;5.80;95.20
25532;DHT22;13429;48.816;9.118;2023-12-14T06:19:08;5.80;95.30
25532;DHT22;13429;48.816;9.118;2023-12-14T06:21:33;5.90;95.30
25532;DHT22;13429;48.816;9.118;2023-12-14T06:23:59;5.90;95.30
25532;DHT22;13429;48.816;9.118;2023-12-14T06:26:25;5.90;95.20
25532;DHT22;13429;48.816;9.118;2023-12-14T06:28:51;5.90;95.20
25532;DHT22;13429;48.816;9.118;2023-12-14T06:31:17;5.90;95.20
25532;DHT22;13429;48.816;9.118;2023-12-14T06:33:43;5.90;95.10
25532;DHT22;13429;48.816;9.118;2023-12-14T06:36:09;5.90;95.10
25532;DHT22;13429;48.816;9.118;2023-12-14T06:38:38;6.00;95.10
25532;DHT22;13429;48.816;9.118;2023-12-14T06:41:04;5.90;95.00
25532;DHT22;13429;48.816;9.118;2023-12-14T06:43:30;6.00;95.10
25532;DHT22;13429;48.816;9.118;2023-12-14T06:45:56;6.00;95.10
25532;DHT22;13429;48.816;9.118;2023-12-14T06:48:21;6.00;95.10
25532;DHT22;13429;48.816;9.118;2023-12-14T06:50:47;6.10;95.10
25532;DHT22;13429;48.816;9.118;2023-12-14T06:53:12;6.10;95.10
25532;DHT22;13429;48.816;9.118;2023-12-14T06:55:40;6.10;95.00
25532;DHT22;13429;48.816;9.118;2023-12-14T06:58:05;6.10;95.00
25532;DHT22;13429;48.816;9.118;2023-12-14T07:00:36;6.10;95.00
25532;DHT22;13429;48.816;9.118;2023-12-14T07:03:02;6.10;95.00
25532;DHT22;13429;48.816;9.118;2023-12-14T07:05:28;6.20;95.00
25532;DHT22;13429;48.816;9.118;2023-12-14T07:07:54;6.20;95.00
25532;DHT22;13429;48.816;9.118;2023-12-14T07:10:21;6.10;95.00
25532;DHT22;13429;48.816;9.118;2023-12-14T07:12:47;6.20;95.00
25532;DHT22;13429;48.816;9.118;2023-12-14T07:15:13;6.20;95.00
25532;DHT22;13429;48.816;9.118;2023-12-14T07:17:38;6.20;95.00
25532;DHT22;13429;48.816;9.118;2023-12-14T07:20:05;6.20;95.00
25532;DHT22;13429;48.816;9.118;2023-12-14T07:22:31;6.20;95.00
25532;DHT22;13429;48.816;9.118;2023-12-14T07:24:57;6.20;95.00
25532;DHT22;13429;48.816;9.118;2023-12-14T07:27:23;6.20;95.10
25532;DHT22;13429;48.816;9.118;2023-12-14T07:29:49;6.20;95.00
25532;DHT22;13429;48.816;9.118;2023-12-14T07:32:17;6.20;95.10
25532;DHT22;13429;48.816;9.118;2023-12-14T07:34:43;6.20;95.10
25532;DHT22;13429;48.816;9.118;2023-12-14T07:37:09;6.20;95.10
25532;DHT22;13429;48.816;9.118;2023-12-14T07:39:36;6.20;95.10
25532;DHT22;13429;48.816;9.118;2023-12-14T07:42:02;6.30;95.10
25532;DHT22;13429;48.816;9.118;2023-12-14T07:44:28;6.30;95.20
25532;DHT22;13429;48.816;9.118;2023-12-14T07:46:56;6.30;95.10
25532;DHT22;13429;48.816;9.118;2023-12-14T07:49:21;6.30;95.20
25532;DHT22;13429;48.816;9.118;2023-12-14T07:51:49;6.30;95.20
25532;DHT22;13429;48.816;9.118;2023-12-14T07:54:14;6.30;95.20
25532;DHT22;13429;48.816;9.118;2023-12-14T07:56:40;6.40;95.20
25532;DHT22;13429;48.816;9.118;2023-12-14T07:59:06;6.40;95.10
25532;DHT22;13429;48.816;9.118;2023-12-14T08:01:33;6.40;95.00
25532;DHT22;13429;48.816;9.118;2023-12-14T08:03:59;6.40;95.00
25532;DHT22;13429;48.816;9.118;2023-12-14T08:06:25;6.50;95.00
25532;DHT22;13429;48.816;9.118;2023-12-14T08:08:51;6.50;94.90
25532;DHT22;13429;48.816;9.118;2023-12-14T08:11:17;6.50;95.00
25532;DHT22;13429;48.816;9.118;2023-12-14T08:13:42;6.40;94.90
25532;DHT22;13429;48.816;9.118;2023-12-14T08:16:08;6.50;94.90
25532;DHT22;13429;48.816;9.118;2023-12-14T08:18:34;6.50;94.90
25532;DHT22;13429;48.816;9.118;2023-12-14T08:21:00;6.40;94.80
25532;DHT22;13429;48.816;9.118;2023-12-14T08:23:25;6.40;94.80
25532;DHT22;13429;48.816;9.118;2023-12-14T08:25:53;6.40;94.80
25532;DHT22;13429;48.816;9.118;2023-12-14T08:28:23;6.40;94.70
25532;DHT22;13429;48.816;9.118;2023-12-14T08:30:49;6.30;94.70
25532;DHT22;13429;48.816;9.118;2023-12-14T08:33:14;6.30;94.70
25532;DHT22;13429;48.816;9.118;2023-12-14T08:35:40;6.30;94.70
25532;DHT22;13429;48.816;9.118;2023-12-14T08:38:06;6.30;94.70
25532;DHT22;13429;48.816;9.118;2023-12-14T08:40:34;6.50;94.70
25532;DHT22;13429;48.816;9.118;2023-12-14T08:42:59;6.70;94.70
25532;DHT22;13429;48.816;9.118;2023-12-14T08:45:25;6.90;94.70
25532;DHT22;13429;48.816;9.118;2023-12-14T08:47:50;7.10;94.50
25532;DHT22;13429;48.816;9.118;2023-12-14T08:50:16;7.10;94.40
25532;DHT22;13429;48.816;9.118;2023-12-14T08:52:42;7.20;94.40
25532;DHT22;13429;48.816;9.118;2023-12-14T08:55:08;7.20;94.30
25532;DHT22;13429;48.816;9.118;2023-12-14T08:57:34;7.20;94.10
25532;DHT22;13429;48.816;9.118;2023-12-14T09:00:00;7.10;94.10
25532;DHT22;13429;48.816;9.118;2023-12-14T09:02:26;7.10;94.10
25532;DHT22;13429;48.816;9.118;2023-12-14T09:04:52;7.20;94.20
25532;DHT22;13429;48.816;9.118;2023-12-14T09:07:18;7.30;94.20
25532;DHT22;13429;48.816;9.118;2023-12-14T09:09:43;7.40;94.10
25532;DHT22;13429;48.816;9.118;2023-12-14T09:12:09;7.40;94.00
25532;DHT22;13429;48.816;9.118;2023-12-14T09:14:35;7.30;93.70
25532;DHT22;13429;48.816;9.118;2023-12-14T09:17:01;7.40;93.70
25532;DHT22;13429;48.816;9.118;2023-12-14T09:19:29;7.30;93.70
25532;DHT22;13429;48.816;9.118;2023-12-14T09:21:55;7.30;93.50
25532;DHT22;13429;48.816;9.118;2023-12-14T09:24:20;7.30;93.60
25532;DHT22;13429;48.816;9.118;2023-12-14T09:26:46;7.30;93.80
25532;DHT22;13429;48.816;9.118;2023-12-14T09:29:12;7.40;93.70
25532;DHT22;13429;48.816;9.118;2023-12-14T09:31:41;7.40;93.50
25532;DHT22;13429;48.816;9.118;2023-12-14T09:34:08;7.30;93.60
25532;DHT22;13429;48.816;9.118;2023-12-14T09:36:34;7.30;93.60
25532;DHT22;13429;48.816;9.118;2023-12-14T09:38:59;7.30;93.80
25532;DHT22;13429;48.816;9.118;2023-12-14T09:41:25;7.30;93.70
25532;DHT22;13429;48.816;9.118;2023-12-14T09:43:52;7.30;93.60
25532;DHT22;13429;48.816;9.118;2023-12-14T09:46:18;7.40;93.70
25532;DHT22;13429;48.816;9.118;2023-12-14T09:48:45;7.50;93.50
25532;DHT22;13429;48.816;9.118;2023-12-14T09:51:12;7.60;93.50
25532;DHT22;13429;48.816;9.118;2023-12-14T09:53:38;7.80;93.40
25532;DHT22;13429;48.816;9.118;2023-12-14T09:56:04;7.90;93.30
25532;DHT22;13429;48.816;9.118;2023-12-14T09:58:32;8.10;92.90
25532;DHT22;13429;48.816;9.118;2023-12-14T10:00:58;8.30;92.90
25532;DHT22;13429;48.816;9.118;2023-12-14T10:03:27;8.40;92.60
25532;DHT22;13429;48.816;9.118;2023-12-14T10:05:58;8.40;92.30
25532;DHT22;13429;48.816;9.118;2023-12-14T10:08:25;8.40;92.20
25532;DHT22;13429;48.816;9.118;2023-12-14T10:10:52;8.40;92.10
25532;DHT22;13429;48.816;9.118;2023-12-14T10:13:36;8.40;91.70
25532;DHT22;13429;48.816;9.118;2023-12-14T10:16:03;8.50;92.00
25532;DHT22;13429;48.816;9.118;2023-12-14T10:18:28;8.50;91.90
25532;DHT22;13429;48.816;9.118;2023-12-14T10:20:56;8.60;92.00
25532;DHT22;13429;48.816;9.118;2023-12-14T10:23:22;8.80;91.90
25532;DHT22;13429;48.816;9.118;2023-12-14T10:25:48;8.80;91.30
25532;DHT22;13429;48.816;9.118;2023-12-14T10:28:14;8.80;90.90
25532;DHT22;13429;48.816;9.118;2023-12-14T10:30:40;8.70;90.90
25532;DHT22;13429;48.816;9.118;2023-12-14T10:33:06;8.60;90.70
25532;DHT22;13429;48.816;9.118;2023-12-14T10:35:31;8.60;91.00
25532;DHT22;13429;48.816;9.118;2023-12-14T10:38:01;8.60;90.90
25532;DHT22;13429;48.816;9.118;2023-12-14T10:40:28;8.60;90.80
25532;DHT22;13429;48.816;9.118;2023-12-14T10:42:55;8.60;90.60
25532;DHT22;13429;48.816;9.118;2023-12-14T10:45:27;8.60;90.50
25532;DHT22;13429;48.816;9.118;2023-12-14T10:47:53;8.40;89.10
25532;DHT22;13429;48.816;9.118;2023-12-14T10:50:20;8.40;89.70
25532;DHT22;13429;48.816;9.118;2023-12-14T10:52:46;8.40;89.80
25532;DHT22;13429;48.816;9.118;2023-12-14T10:57:52;8.30;90.10
25532;DHT22;13429;48.816;9.118;2023-12-14T11:00:18;8.30;90.20
25532;DHT22;13429;48.816;9.118;2023-12-14T11:02:47;8.40;90.30
25532;DHT22;13429;48.816;9.118;2023-12-14T11:05:15;8.30;90.40
25532;DHT22;13429;48.816;9.118;2023-12-14T11:07:53;8.30;90.10
25532;DHT22;13429;48.816;9.118;2023-12-14T11:11:11;8.40;90.20
25532;DHT22;13429;48.816;9.118;2023-12-14T11:13:13;8.40;90.10
25532;DHT22;13429;48.816;9.118;2023-12-14T11:15:45;8.40;89.90
25532;DHT22;13429;48.816;9.118;2023-12-14T11:23:16;8.90;89.80
25532;DHT22;13429;48.816;9.118;2023-12-14T11:25:50;8.90;88.40
25532;DHT22;13429;48.816;9.118;2023-12-14T11:28:16;8.70;88.80
25532;DHT22;13429;48.816;9.118;2023-12-14T11:30:44;8.70;88.90
25532;DHT22;13429;48.816;9.118;2023-12-14T11:33:11;8.70;88.40
25532;DHT22;13429;48.816;9.118;2023-12-14T11:35:37;8.60;88.50
25532;DHT22;13429;48.816;9.118;2023-12-14T11:38:03;8.60;88.70
25532;DHT22;13429;48.816;9.118;2023-12-14T11:40:36;8.60;88.40
25532;DHT22;13429;48.816;9.118;2023-12-14T11:43:03;8.60;88.80
25532;DHT22;13429;48.816;9.118;2023-12-14T11:45:39;8.60;88.60
25532;DHT22;13429;48.816;9.118;2023-12-14T11:48:08;8.60;88.10
25532;DHT22;13429;48.816;9.118;2023-12-14T11:50:36;8.80;87.80
25532;DHT22;13429;48.816;9.118;2023-12-14T11:53:02;8.80;87.00
25532;DHT22;13429;48.816;9.118;2023-12-14T11:55:31;8.80;85.60
25532;DHT22;13429;48.816;9.118;2023-12-14T11:57:58;8.70;83.60
25532;DHT22;13429;48.816;9.118;2023-12-14T12:00:29;8.70;83.90
25532;DHT22;13429;48.816;9.118;2023-12-14T12:05:48;8.70;83.80
25532;DHT22;13429;48.816;9.118;2023-12-14T12:08:15;8.50;83.20
25532;DHT22;13429;48.816;9.118;2023-12-14T12:10:42;8.40;83.90
25532;DHT22;13429;48.816;9.118;2023-12-14T12:13:13;8.30;84.10
25532;DHT22;13429;48.816;9.118;2023-12-14T12:15:40;8.30;84.20
25532;DHT22;13429;48.816;9.118;2023-12-14T12:18:07;8.20;84.60
25532;DHT22;13429;48.816;9.118;2023-12-14T12:20:34;8.30;84.90
25532;DHT22;13429;48.816;9.118;2023-12-14T12:23:01;8.20;85.20
25532;DHT22;13429;48.816;9.118;2023-12-14T12:25:27;8.30;84.80
25532;DHT22;13429;48.816;9.118;2023-12-14T12:27:54;8.20;84.80
25532;DHT22;13429;48.816;9.118;2023-12-14T12:30:21;8.30;85.50
25532;DHT22;13429;48.816;9.118;2023-12-14T12:32:48;8.30;85.20
25532;DHT22;13429;48.816;9.118;2023-12-14T12:35:13;8.20;85.90
25532;DHT22;13429;48.816;9.118;2023-12-14T12:37:39;8.30;85.20
25532;DHT22;13429;48.816;9.118;2023-12-14T12:40:05;8.30;84.30
25532;DHT22;13429;48.816;9.118;2023-12-14T12:42:32;8.10;84.40
25532;DHT22;13429;48.816;9.118;2023-12-14T12:44:57;8.20;84.50
25532;DHT22;13429;48.816;9.118;2023-12-14T12:47:23;8.20;85.00
25532;DHT22;13429;48.816;9.118;2023-12-14T12:49:49;8.20;85.00
25532;DHT22;13429;48.816;9.118;2023-12-14T12:52:15;8.30;85.20
25532;DHT22;13429;48.816;9.118;2023-12-14T12:54:40;8.10;85.70
25532;DHT22;13429;48.816;9.118;2023-12-14T12:57:06;8.10;86.00
25532;DHT22;13429;48.816;9.118;2023-12-14T12:59:33;8.00;86.20
25532;DHT22;13429;48.816;9.118;2023-12-14T13:01:59;7.90;86.60
25532;DHT22;13429;48.816;9.118;2023-12-14T13:04:24;7.80;87.20
25532;DHT22;13429;48.816;9.118;2023-12-14T13:06:52;7.80;87.60
25532;DHT22;13429;48.816;9.118;2023-12-14T13:09:18;7.90;87.80
25532;DHT22;13429;48.816;9.118;2023-12-14T13:11:44;7.80;88.20
25532;DHT22;13429;48.816;9.118;2023-12-14T13:14:11;7.80;88.50
25532;DHT22;13429;48.816;9.118;2023-12-14T13:16:38;7.70;88.70
25532;DHT22;13429;48.816;9.118;2023-12-14T13:19:04;7.60;89.00
25532;DHT22;13429;48.816;9.118;2023-12-14T13:21:34;7.50;88.90
25532;DHT22;13429;48.816;9.118;2023-12-14T13:24:01;7.40;89.50
25532;DHT22;13429;48.816;9.118;2023-12-14T13:26:27;7.40;89.60
25532;DHT22;13429;48.816;9.118;2023-12-14T13:28:53;7.30;89.60
25532;DHT22;13429;48.816;9.118;2023-12-14T13:31:18;7.30;89.70
25532;DHT22;13429;48.816;9.118;2023-12-14T13:33:46;7.30;90.10
25532;DHT22;13429;48.816;9.118;2023-12-14T13:36:13;7.30;90.30
25532;DHT22;13429;48.816;9.118;2023-12-14T13:38:38;7.30;90.30
25532;DHT22;13429;48.816;9.118;2023-12-14T13:41:04;7.30;90.10
25532;DHT22;13429;48.816;9.118;2023-12-14T13:43:31;7.30;90.10
25532;DHT22;13429;48.816;9.118;2023-12-14T13:45:57;7.30;90.20
25532;DHT22;13429;48.816;9.118;2023-12-14T13:48:26;7.40;90.10
25532;DHT22;13429;48.816;9.118;2023-12-14T13:50:56;7.30;89.70
25532;DHT22;13429;48.816;9.118;2023-12-14T13:53:22;7.30;89.90
25532;DHT22;13429;48.816;9.118;2023-12-14T13:55:48;7.20;90.10
25532;DHT22;13429;48.816;9.118;2023-12-14T13:58:15;7.20;90.20
25532;DHT22;13429;48.816;9.118;2023-12-14T14:00:41;7.20;90.40
25532;DHT22;13429;48.816;9.118;2023-12-14T14:03:06;7.10;90.50
25532;DHT22;13429;48.816;9.118;2023-12-14T14:05:33;7.10;90.90
25532;DHT22;13429;48.816;9.118;2023-12-14T14:07:59;7.10;90.80
25532;DHT22;13429;48.816;9.118;2023-12-14T14:10:25;7.10;90.90
25532;DHT22;13429;48.816;9.118;2023-12-14T14:12:50;7.00;90.90
25532;DHT22;13429;48.816;9.118;2023-12-14T14:15:17;7.00;91.00
25532;DHT22;13429;48.816;9.118;2023-12-14T14:17:42;7.00;91.00
25532;DHT22;13429;48.816;9.118;2023-12-14T14:20:08;7.00;91.10
25532;DHT22;13429;48.816;9.118;2023-12-14T14:22:38;7.00;91.30
25532;DHT22;13429;48.816;9.118;2023-12-14T14:25:05;6.90;91.70
25532;DHT22;13429;48.816;9.118;2023-12-14T14:27:34;6.90;91.70
25532;DHT22;13429;48.816;9.118;2023-12-14T14:30:00;6.90;91.80
25532;DHT22;13429;48.816;9.118;2023-12-14T14:32:26;6.90;91.70
25532;DHT22;13429;48.816;9.118;2023-12-14T14:34:51;7.00;91.70
25532;DHT22;13429;48.816;9.118;2023-12-14T14:37:18;7.00;91.70
25532;DHT22;13429;48.816;9.118;2023-12-14T14:39:44;7.00;91.80
25532;DHT22;13429;48.816;9.118;2023-12-14T14:42:10;7.00;91.80
25532;DHT22;13429;48.816;9.118;2023-12-14T14:44:35;7.00;91.80
25532;DHT22;13429;48.816;9.118;2023-12-14T14:47:04;7.00;91.90
25532;DHT22;13429;48.816;9.118;2023-12-14T14:49:30;7.00;92.00
25532;DHT22;13429;48.816;9.118;2023-12-14T14:51:55;7.00;91.90
25532;DHT22;13429;48.816;9.118;2023-12-14T14:54:21;6.90;92.00
25532;DHT22;13429;48.816;9.118;2023-12-14T14:56:46;7.00;91.90
25532;DHT22;13429;48.816;9.118;2023-12-14T14:59:12;6.90;92.00
25532;DHT22;13429;48.816;9.118;2023-12-14T15:01:41;6.90;92.20
25532;DHT22;13429;48.816;9.118;2023-12-14T15:04:07;6.90;92.20
25532;DHT22;13429;48.816;9.118;2023-12-14T15:06:32;6.90;92.20
25532;DHT22;13429;48.816;9.118;2023-12-14T15:08:59;6.90;92.20
25532;DHT22;13429;48.816;9.118;2023-12-14T15:11:25;6.90;92.10
25532;DHT22;13429;48.816;9.118;2023-12-14T15:13:50;6.90;92.10
25532;DHT22;13429;48.816;9.118;2023-12-14T15:16:17;6.90;92.20
25532;DHT22;13429;48.816;9.118;2023-12-14T15:18:43;6.90;92.20
25532;DHT22;13429;48.816;9.118;2023-12-14T15:21:09;6.90;92.30
25532;DHT22;13429;48.816;9.118;2023-12-14T15:23:35;6.90;92.30
25532;DHT22;13429;48.816;9.118;2023-12-14T15:26:02;6.90;92.30
25532;DHT22;13429;48.816;9.118;2023-12-14T15:28:28;6.90;92.40
25532;DHT22;13429;48.816;9.118;2023-12-14T15:30:53;6.90;92.40
25532;DHT22;13429;48.816;9.118;2023-12-14T15:33:19;6.90;92.30
25532;DHT22;13429;48.816;9.118;2023-12-14T15:35:46;6.90;92.40
25532;DHT22;13429;48.816;9.118;2023-12-14T15:38:12;6.80;92.40
25532;DHT22;13429;48.816;9.118;2023-12-14T15:40:38;6.90;92.50
25532;DHT22;13429;48.816;9.118;2023-12-14T15:43:07;6.90;92.50
25532;DHT22;13429;48.816;9.118;2023-12-14T15:45:32;6.80;92.50
25532;DHT22;13429;48.816;9.118;2023-12-14T15:48:02;6.80;92.50
25532;DHT22;13429;48.816;9.118;2023-12-14T15:50:28;6.80;92.50